Anson, Maine
Current Conditions -  °F | °C
As of 9:35 AM on Wednesday 22 Oct 2014 (Local Time) from KWVL Reporting Station
Overcast Overcast  
Wind Chill: 37°   Ceiling: 1500
Heat Index: 45°   Visibility: 10mi
Dew Point: 37°   Wind: 16mph
Humidity: 76%   Direction: 20°NNE
Pressure: 30.17"   Gusts: 21mph
Location:  44.8°N, 69.89°W
Report Text: KWVL 221335Z 02014G18KT 10SM OVC015 07/03 A3017 RMK AO1
Loading
Personal Weather Stations






























Interactive Weather Map
Tropical Storm Tracking
New forecast layout! Learn more

10-Day Weather Forecast

Advertisements
Track Severe Weather on mobile